Time;durP1;ratioP1;P1;durP2;ratioP2;P2;SDS_P1;SDS_P2;PMS_P1;PMS_P2;Temp;Humidity;BMP_temperature;BMP_pressure;BME280_temperature;BME280_humidity;BME280_pressure;Samples;Min_cycle;Max_cycle;Signal;HPM_P1;HPM_P2
2022/02/13 00:00:51;;;;;;;11.25;5.45;;;;;;;7.28;37.79;102699.97;5012266;28;20046;-66
2022/02/13 00:03:18;;;;;;;11.80;5.80;;;;;;;7.19;38.15;102693.13;5014090;28;20541;-66
2022/02/13 00:05:45;;;;;;;7.60;4.70;;;;;;;7.13;38.25;102698.41;5014989;28;20050;-66
2022/02/13 00:08:12;;;;;;;7.57;4.68;;;;;;;7.11;38.23;102692.34;5014962;28;20053;-66
2022/02/13 00:10:59;;;;;;;9.43;4.95;;;;;;;7.07;38.46;102687.16;5015241;28;20057;-66
2022/02/13 00:13:25;;;;;;;10.75;5.32;;;;;;;7.05;38.75;102691.53;5014893;28;20045;-66
2022/02/13 00:15:52;;;;;;;7.03;4.18;;;;;;;7.03;38.83;102682.00;5014949;28;20050;-66
2022/02/13 00:18:19;;;;;;;7.03;4.40;;;;;;;6.99;39.04;102675.03;5014689;28;20053;-66
2022/02/13 00:20:45;;;;;;;6.85;4.70;;;;;;;6.99;39.11;102672.44;5014771;28;20462;-66
2022/02/13 00:23:13;;;;;;;8.88;4.90;;;;;;;6.98;39.07;102677.69;5014762;28;20046;-66
2022/02/13 00:25:40;;;;;;;9.35;5.45;;;;;;;6.97;39.07;102675.94;5014981;28;20197;-66
2022/02/13 00:28:11;;;;;;;8.77;5.25;;;;;;;6.96;39.06;102676.84;5014625;28;20053;-67
2022/02/13 00:30:37;;;;;;;10.00;5.60;;;;;;;6.94;39.33;102665.56;5014481;28;20057;-66
2022/02/13 00:33:04;;;;;;;10.60;5.63;;;;;;;6.94;39.17;102658.56;5014645;28;20050;-66
2022/02/13 00:35:32;;;;;;;9.07;5.30;;;;;;;6.91;39.26;102662.94;5014490;28;20093;-67
2022/02/13 00:37:59;;;;;;;9.10;4.80;;;;;;;6.86;39.61;102652.59;5014426;28;20042;-66
2022/02/13 00:40:26;;;;;;;9.82;4.45;;;;;;;6.77;39.56;102652.69;5014271;28;20054;-67
2022/02/13 00:42:52;;;;;;;8.57;4.80;;;;;;;6.64;39.89;102659.72;5014337;28;20104;-66
2022/02/13 00:45:19;;;;;;;6.88;4.60;;;;;;;6.53;40.31;102657.25;5014650;28;20042;-66
2022/02/13 00:47:45;;;;;;;6.97;4.63;;;;;;;6.44;40.29;102655.56;5014391;28;20046;-68
2022/02/13 00:50:12;;;;;;;7.65;4.72;;;;;;;6.46;40.14;102660.78;5014115;28;20041;-66
2022/02/13 00:52:39;;;;;;;9.95;4.07;;;;;;;6.46;40.07;102656.44;5014053;28;20056;-66
2022/02/13 00:55:06;;;;;;;7.50;5.10;;;;;;;6.46;40.26;102660.78;5014079;28;20104;-66
2022/02/13 00:57:32;;;;;;;7.43;4.57;;;;;;;6.47;40.10;102650.31;5013954;28;20119;-66
2022/02/13 00:59:59;;;;;;;7.82;4.82;;;;;;;6.48;40.03;102654.66;5013864;28;20411;-66
2022/02/13 01:02:26;;;;;;;9.77;4.97;;;;;;;6.46;40.08;102650.34;5014015;28;20069;-66
2022/02/13 01:04:52;;;;;;;6.82;4.50;;;;;;;6.48;40.16;102645.97;5013902;28;20173;-66
2022/02/13 01:07:19;;;;;;;7.90;4.53;;;;;;;6.41;40.39;102655.56;5013762;28;20049;-66
2022/02/13 01:09:46;;;;;;;6.72;4.15;;;;;;;6.34;40.63;102653.91;5013681;28;20056;-66
2022/02/13 01:12:12;;;;;;;7.28;4.20;;;;;;;6.27;40.71;102647.00;5013737;28;20046;-66
2022/02/13 01:14:39;;;;;;;7.40;4.35;;;;;;;6.23;40.88;102645.31;5013402;28;20552;-66
2022/02/13 01:17:06;;;;;;;7.35;4.47;;;;;;;6.19;40.97;102649.69;5013703;28;20560;-66
2022/02/13 01:19:32;;;;;;;6.68;4.45;;;;;;;6.15;41.10;102646.22;5013577;28;20042;-66
2022/02/13 01:22:04;;;;;;;7.82;4.40;;;;;;;6.06;41.29;102643.69;5013635;28;20054;-66
2022/02/13 01:24:31;;;;;;;8.25;4.20;;;;;;;6.08;41.13;102641.06;5013449;28;20453;-66
2022/02/13 01:26:58;;;;;;;5.95;4.45;;;;;;;6.09;41.30;102640.19;5013283;28;20088;-66
2022/02/13 01:32:48;;;;;;;6.65;4.15;;;;;;;6.10;41.25;102639.34;4995169;28;20064;-66
2022/02/13 01:35:14;;;;;;;7.07;4.22;;;;;;;6.08;41.33;102644.53;4993631;28;20050;-66
2022/02/13 01:37:41;;;;;;;9.48;5.00;;;;;;;6.04;41.62;102640.22;4993695;28;20450;-66
2022/02/13 01:40:08;;;;;;;8.70;4.45;;;;;;;5.98;41.77;102648.06;4993670;28;20564;-66
2022/02/13 01:42:35;;;;;;;9.70;5.00;;;;;;;5.97;41.85;102635.91;4993727;28;20042;-66
2022/02/13 01:45:03;;;;;;;6.65;4.32;;;;;;;5.88;41.86;102648.13;4993733;28;20050;-66
2022/02/13 01:47:30;;;;;;;7.25;4.40;;;;;;;5.82;42.05;102642.94;4993457;28;20050;-66
2022/02/13 01:49:57;;;;;;;6.18;4.22;;;;;;;5.84;42.11;102641.19;4993483;28;20062;-66
2022/02/13 01:52:25;;;;;;;7.15;4.55;;;;;;;5.79;42.20;102636.88;4993394;28;20116;-66
2022/02/13 01:54:52;;;;;;;7.68;4.22;;;;;;;5.76;42.11;102629.09;4993545;28;20100;-66
2022/02/13 01:57:19;;;;;;;5.85;4.20;;;;;;;5.77;41.91;102626.47;4993256;28;20047;-66
2022/02/13 01:59:46;;;;;;;8.02;4.18;;;;;;;5.73;42.27;102623.00;4993354;28;20517;-66
2022/02/13 02:02:12;;;;;;;6.50;4.07;;;;;;;5.72;42.22;102623.03;4993479;28;20093;-66
2022/02/13 02:04:42;;;;;;;7.68;4.78;;;;;;;5.67;42.52;102619.59;4993246;28;20100;-66
2022/02/13 02:07:08;;;;;;;8.02;4.93;;;;;;;5.59;42.66;102632.66;4993345;28;20054;-66
2022/02/13 02:09:35;;;;;;;8.85;4.53;;;;;;;5.53;42.74;102617.06;4992536;28;20096;-66
2022/02/13 02:12:05;;;;;;;5.20;4.10;;;;;;;5.47;42.65;102615.38;4992896;28;20054;-66
2022/02/13 02:14:32;;;;;;;5.28;3.97;;;;;;;5.43;42.82;102613.63;4993138;28;20347;-66
2022/02/13 02:16:58;;;;;;;5.90;4.38;;;;;;;5.43;42.67;102615.38;4993085;28;20085;-66
2022/02/13 02:19:27;;;;;;;6.45;4.28;;;;;;;5.37;42.80;102611.94;4992930;28;20046;-66
2022/02/13 02:21:53;;;;;;;5.82;4.72;;;;;;;5.39;42.69;102609.31;4993190;28;20046;-66
2022/02/13 02:24:20;;;;;;;7.65;4.15;;;;;;;5.34;43.06;102611.94;4992951;28;20042;-66
2022/02/13 02:26:47;;;;;;;7.55;4.68;;;;;;;5.28;42.85;102612.00;4992619;28;20043;-66
2022/02/13 02:29:13;;;;;;;7.50;4.70;;;;;;;5.24;43.00;102612.84;4992876;28;20051;-66
2022/02/13 02:31:40;;;;;;;6.82;4.50;;;;;;;5.21;42.83;102603.31;4992811;28;20051;-64
2022/02/13 02:34:06;;;;;;;8.00;4.05;;;;;;;5.17;42.99;102601.59;4992898;28;20546;-63
2022/02/13 02:36:33;;;;;;;8.48;4.65;;;;;;;5.13;43.06;102605.09;4992792;28;20105;-63
2022/02/13 02:39:00;;;;;;;9.00;4.97;;;;;;;5.10;43.27;102606.84;4993100;28;20046;-64
2022/02/13 02:41:26;;;;;;;8.77;5.10;;;;;;;5.07;43.08;102600.75;4992705;28;20104;-64
2022/02/13 02:43:53;;;;;;;7.40;4.80;;;;;;;5.03;43.49;102591.25;4992812;28;20050;-64
2022/02/13 02:46:20;;;;;;;10.43;5.80;;;;;;;5.05;43.10;102592.13;4992746;28;20101;-64
2022/02/13 02:48:46;;;;;;;6.35;4.80;;;;;;;5.12;43.29;102598.16;4992750;28;20054;-64
2022/02/13 02:51:13;;;;;;;9.52;4.80;;;;;;;5.09;43.29;102590.34;4992662;28;20101;-64
2022/02/13 02:53:42;;;;;;;10.38;5.10;;;;;;;5.07;43.24;102585.16;4992893;28;20137;-64
2022/02/13 02:56:10;;;;;;;6.32;4.65;;;;;;;5.04;43.28;102582.56;4992885;28;20050;-64
2022/02/13 02:58:36;;;;;;;8.85;5.10;;;;;;;5.05;43.58;102576.50;4992742;28;20042;-64
2022/02/13 03:01:04;;;;;;;7.05;4.82;;;;;;;5.04;43.42;102584.28;4992731;28;20061;-64
2022/02/13 03:03:33;;;;;;;9.23;4.95;;;;;;;5.02;43.55;102573.03;4992604;28;20061;-64
2022/02/13 03:06:00;;;;;;;6.43;4.45;;;;;;;5.06;43.63;102577.34;4992570;28;20046;-64
2022/02/13 03:08:27;;;;;;;7.63;4.68;;;;;;;5.06;43.54;102575.59;4992631;28;20046;-64
2022/02/13 03:10:53;;;;;;;5.40;4.20;;;;;;;5.12;43.53;102571.28;4992656;28;20132;-64
2022/02/13 03:13:25;;;;;;;6.60;4.22;;;;;;;5.09;43.51;102573.88;4992501;28;20046;-64
2022/02/13 03:15:52;;;;;;;5.63;3.67;;;;;;;5.05;43.85;102576.50;4992524;28;20051;-64
2022/02/13 03:18:19;;;;;;;6.20;4.07;;;;;;;5.00;43.79;102570.47;4992679;28;20074;-63
2022/02/13 03:20:47;;;;;;;7.75;4.07;;;;;;;4.99;43.78;102573.03;4992550;28;20061;-63
2022/02/13 03:23:15;;;;;;;7.85;4.50;;;;;;;4.98;43.73;102572.19;4992474;28;20105;-64
2022/02/13 03:25:42;;;;;;;11.60;4.30;;;;;;;4.96;43.80;102568.72;4992531;28;20105;-64
2022/02/13 03:28:09;;;;;;;6.20;4.00;;;;;;;4.94;43.86;102570.47;4992380;28;20046;-64
2022/02/13 03:30:36;;;;;;;6.45;4.00;;;;;;;4.93;43.97;102570.47;4992286;28;20089;-64
2022/02/13 03:33:03;;;;;;;7.38;4.00;;;;;;;4.90;43.76;102577.41;4992314;28;20058;-64
2022/02/13 03:35:30;;;;;;;7.60;3.85;;;;;;;4.88;43.85;102573.09;4992338;28;20051;-64
2022/02/13 03:37:56;;;;;;;6.70;3.95;;;;;;;4.86;43.60;102577.41;4994208;28;20051;-64
2022/02/13 03:40:23;;;;;;;7.78;4.60;;;;;;;4.81;43.86;102571.38;4995742;28;20058;-64
2022/02/13 03:42:50;;;;;;;6.97;3.90;;;;;;;4.83;43.78;102574.84;4995912;28;20046;-63
2022/02/13 03:45:16;;;;;;;6.75;4.05;;;;;;;4.85;43.78;102571.38;4995709;28;20093;-64
2022/02/13 03:47:43;;;;;;;6.10;3.70;;;;;;;4.85;43.70;102571.38;4995845;28;20093;-63
2022/02/13 03:50:11;;;;;;;5.93;3.72;;;;;;;4.86;43.69;102575.72;4995684;28;20050;-63
2022/02/13 03:52:37;;;;;;;4.97;3.47;;;;;;;4.85;43.86;102568.75;4995706;28;20394;-64
2022/02/13 03:55:06;;;;;;;5.03;3.40;;;;;;;4.88;43.65;102579.16;4995852;28;20089;-64
2022/02/13 03:57:33;;;;;;;6.00;3.42;;;;;;;4.86;43.75;102577.41;4995647;28;20499;-64
2022/02/13 04:00:00;;;;;;;5.13;3.58;;;;;;;4.84;43.85;102572.22;4995429;28;20046;-63
2022/02/13 04:02:27;;;;;;;4.78;3.30;;;;;;;4.84;44.10;102571.38;4993756;28;20088;-64
2022/02/13 04:04:53;;;;;;;5.72;3.45;;;;;;;4.77;44.28;102577.47;4991277;28;20104;-64
2022/02/13 04:07:20;;;;;;;6.10;3.80;;;;;;;4.78;43.95;102574.00;4992076;28;20046;-63
2022/02/13 04:09:46;;;;;;;7.57;4.03;;;;;;;4.78;44.17;102576.59;4990967;28;20093;-64
2022/02/13 04:12:14;;;;;;;6.72;3.67;;;;;;;4.75;44.21;102572.28;4992246;28;20047;-63
2022/02/13 04:14:41;;;;;;;6.45;3.78;;;;;;;4.74;44.28;102570.53;4992078;28;20414;-64
2022/02/13 04:17:07;;;;;;;6.43;4.15;;;;;;;4.71;44.31;102563.59;4992369;28;20054;-64
2022/02/13 04:19:34;;;;;;;6.63;3.50;;;;;;;4.69;44.35;102570.53;4992220;28;20054;-64
2022/02/13 04:22:00;;;;;;;5.63;3.58;;;;;;;4.67;44.47;102568.81;4991753;28;20101;-64
2022/02/13 04:24:27;;;;;;;7.03;4.03;;;;;;;4.66;44.68;102564.47;4991918;28;20105;-64
2022/02/13 04:26:53;;;;;;;5.53;3.38;;;;;;;4.66;44.51;102569.66;4991779;28;20446;-64
2022/02/13 04:29:21;;;;;;;5.70;3.45;;;;;;;4.69;44.61;102565.34;4991344;28;20046;-64
2022/02/13 04:31:48;;;;;;;6.03;3.38;;;;;;;4.68;44.54;102568.78;4991639;28;20061;-64
2022/02/13 04:34:14;;;;;;;6.47;3.80;;;;;;;4.68;44.67;102568.78;4991780;28;20050;-64
2022/02/13 04:36:41;;;;;;;4.47;2.90;;;;;;;4.70;44.55;102561.88;4991732;28;20050;-64
2022/02/13 04:39:07;;;;;;;5.45;3.70;;;;;;;4.71;44.69;102561.00;4991855;28;20438;-64
2022/02/13 04:41:34;;;;;;;6.07;3.30;;;;;;;4.68;44.69;102563.59;4991528;28;20387;-64
2022/02/13 04:44:01;;;;;;;6.10;3.40;;;;;;;4.69;44.58;102556.69;4991715;28;20101;-64
2022/02/13 04:46:27;;;;;;;9.60;3.13;;;;;;;4.64;44.67;102566.22;4991427;28;20050;-64
2022/02/13 04:48:54;;;;;;;6.25;3.17;;;;;;;4.62;44.54;102560.16;4991118;28;20050;-64
2022/02/13 04:51:20;;;;;;;5.55;3.35;;;;;;;4.59;44.65;102555.81;4991489;28;20050;-64
2022/02/13 04:53:47;;;;;;;5.45;3.22;;;;;;;4.60;44.46;102564.47;4991687;28;20046;-64
2022/02/13 04:56:15;;;;;;;4.53;3.20;;;;;;;4.56;44.65;102563.66;4991227;28;20100;-64
2022/02/13 04:58:42;;;;;;;5.60;3.17;;;;;;;4.53;44.56;102563.63;4991444;28;20074;-64
2022/02/13 05:01:09;;;;;;;6.22;3.15;;;;;;;4.48;44.74;102558.47;4991078;28;20050;-64
2022/02/13 05:03:36;;;;;;;3.95;3.13;;;;;;;4.46;44.82;102559.34;4991386;28;20042;-64
2022/02/13 05:06:04;;;;;;;5.45;3.10;;;;;;;4.46;44.76;102556.72;4991100;28;20560;-64
2022/02/13 05:08:31;;;;;;;7.03;3.10;;;;;;;4.45;44.82;102555.84;4991092;28;20050;-64
2022/02/13 05:10:57;;;;;;;4.97;3.17;;;;;;;4.49;44.92;102551.53;4990808;28;20087;-64
2022/02/13 05:13:24;;;;;;;6.28;3.15;;;;;;;4.47;44.91;102545.44;4991207;28;20050;-64
2022/02/13 05:15:51;;;;;;;4.95;3.10;;;;;;;4.45;45.08;102549.81;4991259;28;20545;-64
2022/02/13 05:18:17;;;;;;;4.13;2.63;;;;;;;4.45;45.22;102547.19;4990818;28;20050;-64
2022/02/13 05:20:44;;;;;;;5.35;3.35;;;;;;;4.44;45.15;102543.72;4990720;28;20100;-64
2022/02/13 05:23:10;;;;;;;4.20;2.90;;;;;;;4.40;45.27;102555.00;4990747;28;20104;-64
2022/02/13 05:25:37;;;;;;;4.95;2.80;;;;;;;4.35;45.35;102547.19;4990854;28;20050;-65
2022/02/13 05:28:04;;;;;;;9.02;3.47;;;;;;;4.34;45.45;102548.09;4990924;28;20531;-64
2022/02/13 05:30:30;;;;;;;4.20;3.25;;;;;;;4.34;45.17;102542.00;4990784;28;20046;-63
2022/02/13 05:32:57;;;;;;;6.28;3.30;;;;;;;4.35;45.36;102543.75;4990445;28;20923;-63
2022/02/13 05:35:25;;;;;;;6.20;3.72;;;;;;;4.36;45.22;102540.28;4990634;28;20047;-64
2022/02/13 05:37:52;;;;;;;6.47;3.65;;;;;;;4.34;45.49;102536.81;4990487;28;20105;-64
2022/02/13 05:40:19;;;;;;;7.40;3.35;;;;;;;4.31;45.63;102540.28;4990571;28;20402;-64
2022/02/13 05:42:46;;;;;;;6.13;3.70;;;;;;;4.27;45.48;102540.28;4990432;28;20085;-64
2022/02/13 05:45:12;;;;;;;5.30;3.40;;;;;;;4.14;45.59;102545.50;4990257;28;20050;-64
2022/02/13 05:47:41;;;;;;;5.05;3.45;;;;;;;3.98;45.81;102547.22;4990325;28;20058;-64
2022/02/13 05:50:09;;;;;;;5.50;3.40;;;;;;;3.95;45.94;102556.75;4990327;28;20092;-64
2022/02/13 05:52:35;;;;;;;7.32;3.53;;;;;;;3.95;45.90;102554.16;4990227;28;20479;-63
2022/02/13 05:55:03;;;;;;;6.22;3.97;;;;;;;3.93;46.05;102554.16;4990176;28;20092;-64
2022/02/13 05:57:30;;;;;;;4.80;3.80;;;;;;;3.93;46.15;102551.56;4990134;28;20494;-64
2022/02/13 05:59:56;;;;;;;6.78;3.88;;;;;;;3.95;46.07;102557.63;4989229;28;20082;-63
2022/02/13 06:02:23;;;;;;;5.88;4.05;;;;;;;3.93;46.29;102560.19;4989985;28;20053;-64
2022/02/13 06:04:49;;;;;;;8.70;4.43;;;;;;;3.95;46.27;102555.03;4990265;28;20428;-64
2022/02/13 06:07:16;;;;;;;8.55;4.38;;;;;;;3.90;46.34;102559.34;4989986;28;20402;-63
2022/02/13 06:09:43;;;;;;;5.50;4.18;;;;;;;3.86;46.59;102566.28;4990124;28;20120;-64
2022/02/13 06:12:11;;;;;;;7.45;4.30;;;;;;;3.86;46.63;102557.59;4990197;28;20054;-63
2022/02/13 06:14:37;;;;;;;6.57;4.78;;;;;;;3.88;46.36;102559.34;4990345;28;20108;-63
2022/02/13 06:17:05;;;;;;;6.28;4.07;;;;;;;3.81;46.55;102557.63;4989958;28;20109;-64
2022/02/13 06:19:31;;;;;;;6.63;4.32;;;;;;;3.81;46.65;102561.94;4989826;28;20101;-63
2022/02/13 06:21:58;;;;;;;7.40;4.50;;;;;;;3.84;46.61;102559.34;4989907;28;20050;-64
2022/02/13 06:24:24;;;;;;;5.07;4.13;;;;;;;3.82;46.61;102561.06;4989798;28;20638;-63
2022/02/13 06:26:52;;;;;;;8.30;4.60;;;;;;;3.82;46.73;102558.47;4989871;28;20046;-64
2022/02/13 06:29:19;;;;;;;5.20;4.28;;;;;;;3.79;46.57;102555.88;4989910;28;20114;-63
2022/02/13 06:31:45;;;;;;;7.60;4.70;;;;;;;3.76;46.66;102564.53;4989579;28;20494;-64
2022/02/13 06:34:12;;;;;;;14.23;4.80;;;;;;;3.72;46.64;102560.19;4989694;28;20054;-63
2022/02/13 06:36:38;;;;;;;7.35;4.80;;;;;;;3.71;46.72;102566.25;4990101;28;20557;-64
2022/02/13 06:39:05;;;;;;;8.70;5.22;;;;;;;3.68;46.82;102558.44;4989800;28;20047;-63
2022/02/13 06:41:32;;;;;;;8.85;4.90;;;;;;;3.73;46.84;102568.00;4989509;28;21260;-63
2022/02/13 06:43:58;;;;;;;8.82;5.18;;;;;;;3.79;46.73;102566.28;4989595;28;20092;-64
2022/02/13 06:46:25;;;;;;;10.48;5.18;;;;;;;3.80;46.58;102566.25;4989521;28;20051;-64
2022/02/13 06:48:51;;;;;;;6.72;4.28;;;;;;;3.81;46.58;102561.94;4989850;28;20463;-63
2022/02/13 06:51:18;;;;;;;6.25;4.07;;;;;;;3.81;46.52;102574.91;4989597;28;20053;-63
2022/02/13 06:53:44;;;;;;;7.28;4.43;;;;;;;3.85;46.69;102561.94;4989537;28;20082;-63
2022/02/13 06:56:13;;;;;;;8.43;4.90;;;;;;;3.86;46.61;102571.47;4989472;28;20482;-64
2022/02/13 06:58:40;;;;;;;10.32;4.75;;;;;;;3.95;46.36;102569.72;4989729;28;20117;-63
2022/02/13 07:01:09;;;;;;;9.45;5.25;;;;;;;3.95;46.22;102567.13;4989440;28;20430;-64
2022/02/13 07:03:36;;;;;;;8.02;4.40;;;;;;;3.96;46.28;102564.56;4989605;28;20051;-64
2022/02/13 07:06:03;;;;;;;7.32;4.53;;;;;;;3.99;46.24;102561.09;4989719;28;20050;-65
2022/02/13 07:08:29;;;;;;;8.23;4.90;;;;;;;4.05;46.24;102559.34;4989413;28;20050;-65
2022/02/13 07:10:56;;;;;;;9.45;5.40;;;;;;;4.08;46.20;102564.53;4989593;28;20046;-65
2022/02/13 07:13:23;;;;;;;13.10;6.57;;;;;;;4.15;46.06;102561.94;4993142;28;20100;-65
2022/02/13 07:15:49;;;;;;;9.30;7.00;;;;;;;4.27;46.27;102558.47;4993150;28;20105;-63
2022/02/13 07:18:16;;;;;;;9.00;5.70;;;;;;;4.38;45.75;102562.81;4993078;28;20046;-63
2022/02/13 07:20:43;;;;;;;11.02;5.88;;;;;;;4.50;45.50;102563.66;4992931;28;20186;-63
2022/02/13 07:23:09;;;;;;;9.63;5.72;;;;;;;4.59;45.51;102568.81;4992917;28;20081;-63
2022/02/13 07:25:36;;;;;;;8.13;5.88;;;;;;;4.66;45.21;102567.06;4993322;28;20042;-65
2022/02/13 07:30:48;;;;;;;10.25;6.10;;;;;;;5.07;44.18;102572.13;4992676;28;20046;-66
2022/02/13 07:33:15;;;;;;;11.20;6.63;;;;;;;5.29;43.65;102571.19;4992844;28;20561;-66
2022/02/13 07:35:43;;;;;;;9.32;6.78;;;;;;;5.57;43.17;102571.91;4993099;28;20054;-66
2022/02/13 07:38:10;;;;;;;10.73;6.28;;;;;;;5.86;42.71;102568.25;4992875;28;20043;-66
2022/02/13 07:40:38;;;;;;;10.32;6.63;;;;;;;6.06;42.60;102565.50;4992662;28;20482;-66
2022/02/13 07:43:05;;;;;;;14.82;8.07;;;;;;;6.31;42.19;102570.50;4992820;28;20089;-65
2022/02/13 07:45:31;;;;;;;10.75;6.32;;;;;;;6.52;42.29;102567.69;4992765;28;20185;-65
2022/02/13 07:47:58;;;;;;;10.57;6.68;;;;;;;6.68;42.11;102568.41;4992755;28;20057;-65
2022/02/13 07:50:25;;;;;;;11.05;6.78;;;;;;;6.84;42.12;102574.31;4992527;28;20047;-66
2022/02/13 07:52:51;;;;;;;13.20;6.82;;;;;;;6.88;42.24;102575.13;5007789;28;20569;-66
2022/02/13 07:55:18;;;;;;;13.75;7.20;;;;;;;6.91;42.13;102567.28;4992745;28;20050;-66
2022/02/13 07:57:45;;;;;;;14.95;8.23;;;;;;;7.11;42.10;102567.03;4992516;28;20050;-66
2022/02/13 08:00:12;;;;;;;13.95;8.25;;;;;;;7.18;42.09;102567.81;4992265;28;20490;-66
2022/02/13 08:02:40;;;;;;;13.02;7.38;;;;;;;7.52;41.59;102573.44;4992601;28;20100;-65
2022/02/13 08:05:07;;;;;;;17.48;10.05;;;;;;;7.61;41.62;102569.84;4992312;28;20057;-66
2022/02/13 08:07:34;;;;;;;16.60;9.23;;;;;;;7.82;41.08;102571.25;4992167;28;20557;-66
2022/02/13 08:10:00;;;;;;;16.73;10.50;;;;;;;7.93;40.94;102573.69;4992111;28;20105;-66
2022/02/13 08:12:27;;;;;;;16.70;9.73;;;;;;;7.96;40.90;102563.22;4992122;28;20100;-66
2022/02/13 08:14:53;;;;;;;14.18;8.57;;;;;;;8.25;40.67;102564.47;4992225;28;20046;-66
2022/02/13 08:17:22;;;;;;;14.95;8.75;;;;;;;8.55;40.23;102570.06;4992002;28;20113;-66
2022/02/13 08:19:48;;;;;;;18.92;11.05;;;;;;;8.67;40.22;102566.34;4992212;28;20046;-66
2022/02/13 08:22:15;;;;;;;16.38;8.70;;;;;;;8.73;40.14;102566.22;4991739;28;20100;-66
2022/02/13 08:24:41;;;;;;;15.23;8.15;;;;;;;8.69;40.21;102566.34;4991658;28;20085;-67
2022/02/13 08:27:08;;;;;;;14.38;8.13;;;;;;;8.94;39.80;102578.03;4991986;28;20050;-67
2022/02/13 08:29:34;;;;;;;22.77;16.08;;;;;;;9.15;39.41;102570.63;4991821;28;20051;-66
2022/02/13 08:32:01;;;;;;;20.75;12.90;;;;;;;9.36;39.22;102571.94;4991910;28;20096;-66
2022/02/13 08:34:28;;;;;;;17.63;9.05;;;;;;;9.59;38.74;102563.53;4991549;28;20046;-66
2022/02/13 08:36:54;;;;;;;9.88;6.85;;;;;;;9.80;38.35;102564.81;4991846;28;20054;-66
2022/02/13 08:39:21;;;;;;;11.25;8.13;;;;;;;10.05;37.63;102560.72;4991649;28;20050;-66
2022/02/13 08:41:47;;;;;;;15.68;11.95;;;;;;;10.26;37.34;102568.03;4991418;28;20113;-66
2022/02/13 08:44:15;;;;;;;36.95;23.75;;;;;;;10.40;37.17;102572.09;4991672;28;20081;-67
2022/02/13 08:46:41;;;;;;;10.35;7.78;;;;;;;10.50;36.98;102563.06;4991480;28;20410;-66
2022/02/13 08:49:08;;;;;;;12.07;7.00;;;;;;;10.45;37.07;102567.59;4991269;28;20573;-66
2022/02/13 08:51:35;;;;;;;16.48;10.27;;;;;;;10.71;36.63;102568.63;4991578;28;20104;-67
2022/02/13 08:54:01;;;;;;;12.18;6.50;;;;;;;10.96;36.23;102571.44;4991566;28;20046;-67
2022/02/13 08:56:28;;;;;;;29.92;14.40;;;;;;;11.19;35.92;102562.88;4990942;28;20050;-66
2022/02/13 08:58:55;;;;;;;14.13;8.93;;;;;;;11.40;35.65;102558.72;4991283;28;20053;-66
2022/02/13 09:01:23;;;;;;;15.35;9.75;;;;;;;11.46;35.54;102562.09;4990933;28;20402;-66
2022/02/13 09:03:50;;;;;;;19.15;9.48;;;;;;;11.18;35.86;102562.91;4991398;28;20592;-66
2022/02/13 09:06:16;;;;;;;13.98;8.30;;;;;;;11.10;36.22;102555.28;4991141;28;20136;-66
2022/02/13 09:08:43;;;;;;;11.25;6.65;;;;;;;11.13;36.29;102560.41;4991217;28;20410;-66
2022/02/13 09:11:10;;;;;;;33.20;18.08;;;;;;;11.04;36.36;102556.28;4990935;28;20092;-66
2022/02/13 09:13:37;;;;;;;155.57;85.10;;;;;;;11.04;36.30;102560.69;4990929;28;20109;-66
2022/02/13 09:16:04;;;;;;;38.75;25.67;;;;;;;11.25;35.90;102554.81;4991395;28;20414;-66
2022/02/13 09:18:30;;;;;;;56.33;36.58;;;;;;;11.44;35.39;102556.88;4991074;28;20104;-66
2022/02/13 09:20:57;;;;;;;26.80;19.30;;;;;;;11.60;35.22;102544.97;4990957;28;20101;-66
2022/02/13 09:23:23;;;;;;;59.75;47.00;;;;;;;11.68;35.02;102547.34;4990857;28;20553;-66
2022/02/13 09:25:50;;;;;;;51.58;41.80;;;;;;;11.72;35.01;102548.13;4990812;28;20097;-66
2022/02/13 09:28:18;;;;;;;29.75;21.63;;;;;;;11.73;35.21;102541.91;4990640;28;20051;-66
2022/02/13 09:30:47;;;;;;;20.00;13.07;;;;;;;11.99;34.42;102537.63;4990808;28;20050;-66
2022/02/13 09:33:19;;;;;;;55.58;37.90;;;;;;;12.03;34.08;102541.84;4990575;28;20046;-67
2022/02/13 09:35:47;;;;;;;63.70;45.40;;;;;;;12.35;33.45;102546.00;4990672;28;20050;-66
2022/02/13 09:38:16;;;;;;;16.55;10.68;;;;;;;12.71;32.88;102539.50;4990452;28;20607;-66
2022/02/13 09:40:45;;;;;;;18.35;10.20;;;;;;;13.12;31.99;102538.84;4990581;28;20125;-66
2022/02/13 09:43:11;;;;;;;9.30;6.97;;;;;;;13.18;31.92;102535.94;4990334;28;20100;-66
2022/02/13 09:45:45;;;;;;;16.67;10.65;;;;;;;13.05;32.30;102536.44;4990178;28;20129;-67
2022/02/13 09:48:16;;;;;;;8.50;5.88;;;;;;;12.71;32.51;102532.44;4990415;28;20050;-66
2022/02/13 09:50:44;;;;;;;6.70;5.45;;;;;;;12.54;32.86;102538.34;4990381;28;20050;-66
2022/02/13 09:53:13;;;;;;;6.50;5.13;;;;;;;12.28;33.15;102533.09;4990349;28;20570;-66
2022/02/13 09:55:40;;;;;;;6.85;4.20;;;;;;;12.12;33.31;102530.16;4990334;28;20112;-66
2022/02/13 09:58:07;;;;;;;15.68;8.70;;;;;;;12.06;33.12;102531.22;4990235;28;20058;-66
2022/02/13 10:00:52;;;;;;;6.28;4.20;;;;;;;11.93;33.34;102526.38;4990269;28;20050;-66
2022/02/13 10:03:33;;;;;;;7.13;4.68;;;;;;;11.86;33.21;102529.22;4990144;28;20056;-66
2022/02/13 10:06:12;;;;;;;15.23;8.50;;;;;;;12.15;32.70;102522.16;4990477;28;20569;-66
2022/02/13 10:08:44;;;;;;;8.35;6.20;;;;;;;12.71;31.94;102521.91;4990050;28;20042;-66
2022/02/13 10:11:15;;;;;;;18.70;13.27;;;;;;;13.31;31.01;102512.63;4990027;28;20050;-66
2022/02/13 10:13:54;;;;;;;7.35;5.80;;;;;;;13.74;30.32;102503.00;4990032;28;20074;-66
2022/02/13 10:16:26;;;;;;;12.23;8.18;;;;;;;13.93;30.23;102512.75;4989875;28;20557;-66
2022/02/13 10:19:22;;;;;;;6.28;4.53;;;;;;;14.27;29.54;102509.53;4990019;28;20656;-66
2022/02/13 10:21:53;;;;;;;8.88;4.40;;;;;;;14.32;29.45;102502.25;4989934;28;20050;-66
2022/02/13 10:24:23;;;;;;;6.22;4.07;;;;;;;14.26;29.24;102506.94;4989800;28;20050;-66
2022/02/13 10:27:09;;;;;;;27.45;18.55;;;;;;;14.16;29.63;102511.78;4989729;28;20108;-66
2022/02/13 10:29:43;;;;;;;8.57;5.55;;;;;;;14.14;29.50;102508.34;4989153;28;20113;-66
2022/02/13 10:32:11;;;;;;;6.22;3.85;;;;;;;14.17;29.36;102510.84;4989508;28;20082;-66
2022/02/13 10:34:56;;;;;;;5.65;4.07;;;;;;;14.31;29.11;102497.03;4989977;28;20046;-66
2022/02/13 10:37:42;;;;;;;11.15;9.98;;;;;;;14.74;28.47;102495.16;4989734;28;20066;-66
2022/02/13 10:40:18;;;;;;;5.75;4.60;;;;;;;14.96;28.28;102491.50;4989750;28;20050;-66
2022/02/13 10:42:45;;;;;;;5.22;3.55;;;;;;;15.35;27.13;102488.72;4989708;28;20089;-66
2022/02/13 10:45:20;;;;;;;4.88;3.33;;;;;;;15.61;26.85;102467.19;4989615;28;20050;-66
2022/02/13 10:47:47;;;;;;;11.00;9.20;;;;;;;15.85;26.51;102478.34;4993048;28;20050;-66
2022/02/13 10:50:17;;;;;;;7.65;4.45;;;;;;;16.11;26.48;102470.84;4993617;28;20046;-66
2022/02/13 10:52:48;;;;;;;4.25;3.10;;;;;;;16.30;26.17;102473.38;4993708;28;20174;-66
2022/02/13 10:55:15;;;;;;;4.40;3.35;;;;;;;16.43;26.10;102463.84;4993411;28;20490;-66
2022/02/13 10:57:43;;;;;;;5.10;3.22;;;;;;;16.45;25.84;102454.00;4993692;28;20046;-66
2022/02/13 11:00:16;;;;;;;4.65;3.10;;;;;;;16.53;25.79;102460.69;4993392;28;20047;-66
2022/02/13 11:02:48;;;;;;;4.95;3.00;;;;;;;16.64;25.25;102442.41;4993401;28;20078;-66
2022/02/13 11:05:16;;;;;;;4.00;2.83;;;;;;;16.71;25.12;102435.81;4993238;28;20077;-66
2022/02/13 11:07:49;;;;;;;3.80;2.80;;;;;;;16.63;25.09;102435.38;4993425;28;20138;-66
2022/02/13 11:10:27;;;;;;;4.50;2.80;;;;;;;16.64;24.85;102426.50;4993253;28;20046;-66
2022/02/13 11:12:55;;;;;;;4.32;3.20;;;;;;;16.77;24.84;102430.19;4993461;28;20100;-66
2022/02/13 11:15:27;;;;;;;4.97;3.35;;;;;;;16.80;24.52;102422.03;4993228;28;20053;-66
2022/02/13 11:18:01;;;;;;;4.07;2.90;;;;;;;16.86;24.71;102409.38;4993315;28;20409;-66
2022/02/13 11:20:29;;;;;;;4.05;3.13;;;;;;;16.84;24.51;102401.53;4992994;28;20545;-66
2022/02/13 11:23:22;;;;;;;6.15;3.33;;;;;;;16.89;24.30;102402.13;4993010;28;20092;-65
2022/02/13 11:25:54;;;;;;;4.10;3.00;;;;;;;16.96;24.55;102397.34;4993022;28;20073;-66
2022/02/13 11:28:25;;;;;;;3.75;3.20;;;;;;;16.97;24.55;102389.28;4992794;28;20077;-67
2022/02/13 11:30:57;;;;;;;4.65;3.10;;;;;;;16.80;24.20;102378.78;4992829;28;20533;-66
2022/02/13 11:33:23;;;;;;;5.70;2.78;;;;;;;16.97;23.90;102381.34;4992791;28;20054;-66
2022/02/13 11:35:57;;;;;;;6.25;4.60;;;;;;;17.10;24.03;102370.03;4992974;28;20050;-66
2022/02/13 11:38:39;;;;;;;4.80;3.35;;;;;;;17.17;23.97;102365.22;4992803;28;20053;-66